createdAt,value
2024-01-11T00:00:36.997Z,102041.41
2024-01-11T00:03:03.902Z,102035.63
2024-01-11T00:05:30.793Z,102052.53
2024-01-11T00:07:57.571Z,102048.53
2024-01-11T00:10:24.291Z,102066.03
2024-01-11T00:12:51.148Z,102033.69
2024-01-11T00:15:18.305Z,102046.56
2024-01-11T00:17:45.142Z,102080.13
2024-01-11T00:20:12.298Z,102055.75
2024-01-11T00:22:38.975Z,102047.00
2024-01-11T00:25:06.214Z,102064.97
2024-01-11T00:27:32.901Z,102070.50
2024-01-11T00:29:59.877Z,102059.19
2024-01-11T00:32:29.992Z,102064.13
2024-01-11T00:34:56.788Z,102060.72
2024-01-11T00:37:23.688Z,102073.75
2024-01-11T00:39:52.214Z,102055.56
2024-01-11T00:42:18.790Z,102074.19
2024-01-11T00:44:46.602Z,102060.53
2024-01-11T00:47:13.375Z,102069.63
2024-01-11T00:49:40.024Z,102081.63
2024-01-11T00:52:07.170Z,102079.06
2024-01-11T00:54:33.824Z,102089.44
2024-01-11T00:57:00.401Z,102064.53
2024-01-11T00:59:27.089Z,102090.56
2024-01-11T01:01:53.754Z,102063.75
2024-01-11T01:04:20.413Z,102074.97
2024-01-11T01:06:47.088Z,102072.56
2024-01-11T01:09:14.953Z,102092.47
2024-01-11T01:11:41.505Z,102104.81
2024-01-11T01:14:08.187Z,102068.50
2024-01-11T01:16:34.876Z,102074.00
2024-01-11T01:19:01.729Z,102086.00
2024-01-11T01:21:29.409Z,102084.47
2024-01-11T01:23:56.136Z,102099.69
2024-01-11T01:26:22.829Z,102070.41
2024-01-11T01:28:49.449Z,102067.56
2024-01-11T01:31:16.141Z,102086.94
2024-01-11T01:33:43.027Z,102093.88
2024-01-11T01:36:11.589Z,102093.19
2024-01-11T01:38:38.449Z,102102.25
2024-01-11T01:41:05.188Z,102107.28
2024-01-11T01:43:31.820Z,102100.63
2024-01-11T01:45:59.667Z,102108.44
2024-01-11T01:48:26.647Z,102114.88
2024-01-11T01:50:53.569Z,102112.69
2024-01-11T01:53:24.178Z,102108.59
2024-01-11T01:55:53.727Z,102084.81
2024-01-11T01:58:21.783Z,102112.38
2024-01-11T02:00:52.263Z,102107.25
2024-01-11T02:03:19.470Z,102107.06
2024-01-11T02:05:46.586Z,102111.88
2024-01-11T02:08:18.759Z,102124.75
2024-01-11T02:10:47.198Z,102098.28
2024-01-11T02:13:16.569Z,102122.25
2024-01-11T02:15:44.207Z,102109.53
2024-01-11T02:18:11.543Z,102114.84
2024-01-11T02:20:38.256Z,102105.16
2024-01-11T02:23:16.155Z,102115.22
2024-01-11T02:25:42.765Z,102093.31
2024-01-11T02:28:09.850Z,102112.94
2024-01-11T02:30:37.631Z,102102.66
2024-01-11T02:33:05.706Z,102113.59
2024-01-11T02:35:33.035Z,102121.50
2024-01-11T02:38:00.991Z,102117.97
2024-01-11T02:40:27.732Z,102116.19
2024-01-11T02:42:54.542Z,102106.09
2024-01-11T02:45:21.384Z,102114.25
2024-01-11T02:47:48.033Z,102120.84
2024-01-11T02:50:14.793Z,102112.94
2024-01-11T02:52:41.413Z,102111.22
2024-01-11T02:55:09.692Z,102122.47
2024-01-11T02:57:36.268Z,102107.59
2024-01-11T03:00:02.907Z,102108.22
2024-01-11T03:02:29.869Z,102103.63
2024-01-11T03:04:56.518Z,102095.06
2024-01-11T03:07:23.356Z,102108.13
2024-01-11T03:09:50.054Z,102098.50
2024-01-11T03:12:16.595Z,102107.06
2024-01-11T03:14:43.286Z,102100.03
2024-01-11T03:17:10.274Z,102096.59
2024-01-11T03:19:42.173Z,102093.19
2024-01-11T03:22:09.144Z,102096.59
2024-01-11T03:24:40.382Z,102084.44
2024-01-11T03:27:07.289Z,102086.31
2024-01-11T03:29:34.128Z,102084.44
2024-01-11T03:32:00.970Z,102085.28
2024-01-11T03:34:27.712Z,102089.59
2024-01-11T03:36:54.358Z,102082.56
2024-01-11T03:39:20.962Z,102082.56
2024-01-11T03:41:47.886Z,102074.75
2024-01-11T03:44:14.909Z,102071.25
2024-01-11T03:46:41.765Z,102062.31
2024-01-11T03:49:11.253Z,102058.00
2024-01-11T03:51:38.002Z,102041.06
2024-01-11T03:54:07.553Z,102028.25
2024-01-11T03:56:35.535Z,102065.97
2024-01-11T03:59:02.256Z,102045.38
2024-01-11T04:01:29.762Z,102048.31
2024-01-11T04:03:56.564Z,102075.13
2024-01-11T04:06:25.350Z,102069.38
2024-01-11T04:08:52.382Z,102064.25
2024-01-11T04:11:20.140Z,102052.94
2024-01-11T04:13:46.882Z,102060.72
2024-01-11T04:16:13.668Z,102089.28
2024-01-11T04:18:40.442Z,102037.63
2024-01-11T04:21:07.103Z,102054.84
2024-01-11T04:23:33.716Z,102064.94
2024-01-11T04:26:00.552Z,102081.47
2024-01-11T04:28:27.199Z,102098.47
2024-01-11T04:30:54.655Z,102089.69
2024-01-11T04:33:22.995Z,102114.03
2024-01-11T04:35:49.940Z,102098.25
2024-01-11T04:38:16.713Z,102098.91
2024-01-11T04:40:43.522Z,102085.19
2024-01-11T04:43:10.353Z,102099.72
2024-01-11T04:45:37.057Z,102081.47
2024-01-11T04:48:04.121Z,102071.22
2024-01-11T04:50:31.015Z,102086.63
2024-01-11T04:52:57.886Z,102095.34
2024-01-11T04:55:24.539Z,102103.28
2024-01-11T04:57:51.207Z,102116.28
2024-01-11T05:00:18.240Z,102133.16
2024-01-11T05:02:44.955Z,102118.72
2024-01-11T05:05:11.858Z,102147.81
2024-01-11T05:07:39.264Z,102141.81
2024-01-11T05:10:06.733Z,102124.03
2024-01-11T05:12:33.506Z,102125.84
2024-01-11T05:15:00.249Z,102126.78
2024-01-11T05:17:28.100Z,102139.13
2024-01-11T05:19:55.154Z,102141.47
2024-01-11T05:22:23.267Z,102132.63
2024-01-11T05:24:50.016Z,102088.06
2024-01-11T05:27:17.019Z,102103.91
2024-01-11T05:29:43.878Z,102134.69
2024-01-11T05:32:11.249Z,102129.63
2024-01-11T05:34:38.196Z,102124.56
2024-01-11T05:37:05.121Z,102125.59
2024-01-11T05:39:32.988Z,102132.63
2024-01-11T05:41:59.642Z,102110.00
2024-01-11T05:44:26.408Z,102107.78
2024-01-11T05:46:53.045Z,102111.72
2024-01-11T05:49:20.068Z,102144.47
2024-01-11T05:51:46.692Z,102133.47
2024-01-11T05:54:13.378Z,102153.53
2024-01-11T05:56:40.138Z,102138.13
2024-01-11T05:59:07.094Z,102160.22
2024-01-11T06:01:33.840Z,102179.63
2024-01-11T06:04:00.598Z,102153.06
2024-01-11T06:06:27.344Z,102172.59
2024-01-11T06:08:54.107Z,102182.03
2024-01-11T06:11:20.891Z,102174.47
2024-01-11T06:13:48.440Z,102158.38
2024-01-11T06:16:15.241Z,102164.97
2024-01-11T06:18:42.175Z,102165.06
2024-01-11T06:21:08.921Z,102191.78
2024-01-11T06:23:35.584Z,102178.25
2024-01-11T06:26:02.242Z,102183.38
2024-01-11T06:28:29.377Z,102187.00
2024-01-11T06:30:56.093Z,102211.34
2024-01-11T06:33:22.950Z,102189.72
2024-01-11T06:35:50.970Z,102203.78
2024-01-11T06:38:17.845Z,102214.41
2024-01-11T06:40:44.817Z,102211.34
2024-01-11T06:43:11.434Z,102219.25
2024-01-11T06:45:38.143Z,102223.69
2024-01-11T06:48:05.303Z,102214.78
2024-01-11T06:50:32.000Z,102202.75
2024-01-11T06:52:58.913Z,102214.09
2024-01-11T06:55:25.543Z,102217.00
2024-01-11T06:57:52.130Z,102206.72
2024-01-11T07:00:19.075Z,102201.91
2024-01-11T07:02:45.982Z,102227.97
2024-01-11T07:05:13.773Z,102221.47
2024-01-11T07:07:40.566Z,102239.88
2024-01-11T07:10:07.603Z,102232.84
2024-01-11T07:12:34.421Z,102218.81
2024-01-11T07:15:01.140Z,102218.13
2024-01-11T07:17:28.054Z,102216.88
2024-01-11T07:19:54.781Z,102218.16
2024-01-11T07:22:21.581Z,102210.53
2024-01-11T07:24:48.220Z,102219.38
2024-01-11T07:27:15.741Z,102222.13
2024-01-11T07:29:42.721Z,102216.81
2024-01-11T07:32:09.770Z,102204.63
2024-01-11T07:34:36.557Z,102206.84
2024-01-11T07:37:03.458Z,102213.03
2024-01-11T07:39:32.230Z,102204.53
2024-01-11T07:41:58.922Z,102196.88
2024-01-11T07:44:25.622Z,102214.06
2024-01-11T07:46:54.547Z,102208.06
2024-01-11T07:49:22.883Z,102208.06
2024-01-11T07:51:50.462Z,102209.94
2024-01-11T07:54:17.179Z,102217.06
2024-01-11T07:56:44.222Z,102208.59
2024-01-11T07:59:16.380Z,102233.84
2024-01-11T08:01:43.312Z,102232.41
2024-01-11T08:04:10.418Z,102250.56
2024-01-11T08:06:37.107Z,102242.03
2024-01-11T08:09:06.211Z,102243.81
2024-01-11T08:11:36.622Z,102250.94
2024-01-11T08:14:07.357Z,102268.59
2024-01-11T08:16:34.415Z,102246.28
2024-01-11T08:19:02.439Z,102255.19
2024-01-11T08:21:29.976Z,102241.25
2024-01-11T08:24:00.609Z,102258.38
2024-01-11T08:26:31.623Z,102241.81
2024-01-11T08:29:00.049Z,102290.03
2024-01-11T08:31:28.055Z,102252.13
2024-01-11T08:33:56.239Z,102245.19
2024-01-11T08:36:23.305Z,102218.50
2024-01-11T08:38:51.493Z,102223.66
2024-01-11T08:41:18.270Z,102225.53
2024-01-11T08:43:45.003Z,102258.38
2024-01-11T08:46:11.710Z,102251.28
2024-01-11T08:48:38.719Z,102232.44
2024-01-11T08:51:07.671Z,102245.53
2024-01-11T08:53:34.448Z,102235.69
2024-01-11T08:56:01.342Z,102248.28
2024-01-11T08:58:28.638Z,102256.72
2024-01-11T09:00:55.462Z,102259.13
2024-01-11T09:03:22.474Z,102238.59
2024-01-11T09:05:49.518Z,102227.81
2024-01-11T09:08:16.338Z,102236.53
2024-01-11T09:10:43.266Z,102237.06
2024-01-11T09:13:11.706Z,102243.75
2024-01-11T09:15:39.613Z,102258.50
2024-01-11T09:18:06.633Z,102265.53
2024-01-11T09:20:35.748Z,102267.25
2024-01-11T09:23:05.318Z,102292.31
2024-01-11T09:25:32.237Z,102259.19
2024-01-11T09:27:58.951Z,102281.66
2024-01-11T09:30:29.044Z,102254.22
2024-01-11T09:32:57.165Z,102269.66
2024-01-11T09:35:24.824Z,102271.53
2024-01-11T09:37:52.432Z,102250.44
2024-01-11T09:40:20.203Z,102271.81
2024-01-11T09:42:47.027Z,102254.22
2024-01-11T09:45:17.315Z,102267.56
2024-01-11T09:47:47.475Z,102286.94
2024-01-11T09:50:19.585Z,102291.91
2024-01-11T09:52:51.223Z,102263.00
2024-01-11T09:55:19.032Z,102270.25
2024-01-11T09:57:47.458Z,102288.41
2024-01-11T10:00:24.045Z,102275.47
2024-01-11T10:02:51.176Z,102261.72
2024-01-11T10:05:19.253Z,102263.44
2024-01-11T10:07:47.220Z,102291.63
2024-01-11T10:10:16.799Z,102322.50
2024-01-11T10:12:44.226Z,102293.47
2024-01-11T10:15:12.087Z,102289.84
2024-01-11T10:17:44.213Z,102310.66
2024-01-11T10:20:15.573Z,102279.13
2024-01-11T10:22:43.268Z,102296.47
2024-01-11T10:25:15.022Z,102279.91
2024-01-11T10:27:45.916Z,102233.63
2024-01-11T10:30:27.593Z,102248.88
2024-01-11T10:32:55.206Z,102261.25
2024-01-11T10:35:23.002Z,102270.19
2024-01-11T10:37:55.156Z,102264.97
2024-01-11T10:40:25.595Z,102295.69
2024-01-11T10:42:53.554Z,102269.13
2024-01-11T10:45:21.492Z,102282.31
2024-01-11T10:48:03.706Z,102282.22
2024-01-11T10:50:35.720Z,102268.34
2024-01-11T10:53:20.905Z,102273.81
2024-01-11T10:55:48.636Z,102262.09
2024-01-11T10:58:17.707Z,102273.13
2024-01-11T11:00:45.934Z,102281.50
2024-01-11T11:03:13.948Z,102271.78
2024-01-11T11:05:42.602Z,102279.28
2024-01-11T11:08:11.036Z,102265.09
2024-01-11T11:10:51.909Z,102289.50
2024-01-11T11:13:19.450Z,102278.94
2024-01-11T11:15:48.254Z,102285.19
2024-01-11T11:18:15.319Z,102288.41
2024-01-11T11:20:45.242Z,102292.03
2024-01-11T11:23:15.146Z,102292.59
2024-01-11T11:25:42.204Z,102292.72
2024-01-11T11:28:09.208Z,102299.56
2024-01-11T11:30:41.715Z,102296.16
2024-01-11T11:33:25.905Z,102328.47
2024-01-11T11:35:59.560Z,102339.09
2024-01-11T11:38:31.169Z,102309.91
2024-01-11T11:41:02.454Z,102291.94
2024-01-11T11:43:30.675Z,102290.13
2024-01-11T11:46:00.550Z,102277.84
2024-01-11T11:48:33.047Z,102295.59
2024-01-11T11:51:20.717Z,102293.25
2024-01-11T11:53:52.430Z,102259.44
2024-01-11T11:56:21.702Z,102271.53
2024-01-11T11:58:49.713Z,102242.94
2024-01-11T12:01:18.764Z,102271.09
2024-01-11T12:03:53.411Z,102254.72
2024-01-11T12:06:22.138Z,102247.44
2024-01-11T12:08:50.113Z,102268.59
2024-01-11T12:11:21.834Z,102256.94
2024-01-11T12:13:50.310Z,102262.81
2024-01-11T12:16:20.376Z,102253.38
2024-01-11T12:18:47.207Z,102280.94
2024-01-11T12:21:13.898Z,102258.13
2024-01-11T12:23:43.375Z,102283.47
2024-01-11T12:26:15.303Z,102259.81
2024-01-11T12:28:43.997Z,102286.59
2024-01-11T12:31:11.220Z,102273.09
2024-01-11T12:33:40.286Z,102277.88
2024-01-11T12:36:09.180Z,102281.59
2024-01-11T12:38:36.901Z,102250.13
2024-01-11T12:41:07.450Z,102264.31
2024-01-11T12:43:36.093Z,102271.81
2024-01-11T12:46:04.019Z,102244.63
2024-01-11T12:48:32.998Z,102246.59
2024-01-11T12:51:10.479Z,102227.31
2024-01-11T12:53:47.192Z,102239.69
2024-01-11T12:56:17.183Z,102211.78
2024-01-11T12:58:44.192Z,102231.91
2024-01-11T13:01:12.035Z,102231.31
2024-01-11T13:03:40.839Z,102240.56
2024-01-11T13:06:08.058Z,102218.63
2024-01-11T13:08:37.839Z,102228.13
2024-01-11T13:11:08.545Z,102233.28
2024-01-11T13:13:36.240Z,102218.63
2024-01-11T13:16:15.857Z,102241.81
2024-01-11T13:18:44.250Z,102204.25
2024-01-11T13:21:11.478Z,102214.09
2024-01-11T13:23:39.624Z,102236.31
2024-01-11T13:26:07.953Z,102206.41
2024-01-11T13:28:35.103Z,102220.34
2024-01-11T13:31:03.657Z,102215.44
2024-01-11T13:33:30.537Z,102259.22
2024-01-11T13:35:57.587Z,102252.03
2024-01-11T13:38:27.100Z,102263.75
2024-01-11T13:40:54.818Z,102231.41
2024-01-11T13:43:21.596Z,102266.56
2024-01-11T13:45:48.696Z,102274.69
2024-01-11T13:48:15.592Z,102242.38
2024-01-11T13:50:42.445Z,102259.09
2024-01-11T13:53:09.316Z,102233.47
2024-01-11T13:55:40.126Z,102214.69
2024-01-11T13:58:07.947Z,102268.38
2024-01-11T14:00:34.923Z,102253.72
2024-01-11T14:03:02.923Z,102213.84
2024-01-11T14:05:30.105Z,102238.38
2024-01-11T14:08:00.563Z,102263.75
2024-01-11T14:10:29.798Z,102227.78
2024-01-11T14:12:56.800Z,102225.94
2024-01-11T14:15:24.297Z,102222.50
2024-01-11T14:17:53.249Z,102219.13
2024-01-11T14:20:20.680Z,102228.84
2024-01-11T14:22:54.286Z,102240.09
2024-01-11T14:25:22.419Z,102258.88
2024-01-11T14:27:50.350Z,102256.19
2024-01-11T14:30:18.081Z,102238.50
2024-01-11T14:32:47.155Z,102256.56
2024-01-11T14:35:14.949Z,102195.22
2024-01-11T14:37:44.186Z,102242.50
2024-01-11T14:40:14.276Z,102244.84
2024-01-11T14:42:42.626Z,102210.59
2024-01-11T14:45:09.800Z,102216.31
2024-01-11T14:47:37.167Z,102239.72
2024-01-11T14:50:12.014Z,102257.75
2024-01-11T14:52:40.245Z,102256.19
2024-01-11T14:55:08.293Z,102254.25
2024-01-11T14:57:38.317Z,102226.69
2024-01-11T15:00:05.953Z,102233.00
2024-01-11T15:02:36.591Z,102226.16
2024-01-11T15:05:03.565Z,102262.03
2024-01-11T15:07:30.349Z,102259.81
2024-01-11T15:09:57.088Z,102222.63
2024-01-11T15:12:23.802Z,102244.69
2024-01-11T15:14:52.368Z,102209.78
2024-01-11T15:17:19.902Z,102191.75
2024-01-11T15:19:46.989Z,102257.00
2024-01-11T15:22:15.048Z,102264.56
2024-01-11T15:24:43.950Z,102272.72
2024-01-11T15:27:11.680Z,102238.09
2024-01-11T15:29:39.103Z,102247.09
2024-01-11T15:32:06.380Z,102275.63
2024-01-11T15:34:33.381Z,102261.72
2024-01-11T15:37:03.837Z,102275.38
2024-01-11T15:39:31.645Z,102272.81
2024-01-11T15:42:05.057Z,102260.84
2024-01-11T15:44:33.208Z,102247.78
2024-01-11T15:47:02.910Z,102261.47
2024-01-11T15:49:29.743Z,102231.47
2024-01-11T15:51:57.407Z,102258.28
2024-01-11T15:54:24.131Z,102272.44
2024-01-11T15:56:52.100Z,102271.81
2024-01-11T15:59:19.175Z,102272.66
2024-01-11T16:01:56.232Z,102274.34
2024-01-11T16:04:30.328Z,102293.59
2024-01-11T16:06:57.514Z,102261.00
2024-01-11T16:09:24.865Z,102296.97
2024-01-11T16:11:52.065Z,102280.09
2024-01-11T16:14:19.125Z,102265.41
2024-01-11T16:16:46.886Z,102287.22
2024-01-11T16:19:13.756Z,102296.41
2024-01-11T16:21:40.687Z,102278.78
2024-01-11T16:24:07.937Z,102319.69
2024-01-11T16:26:34.765Z,102326.16
2024-01-11T16:29:01.709Z,102312.94
2024-01-11T16:31:30.254Z,102336.84
2024-01-11T16:33:57.658Z,102311.31
2024-01-11T16:36:25.006Z,102317.75
2024-01-11T16:38:52.002Z,102338.66
2024-01-11T16:41:19.057Z,102339.72
2024-01-11T16:43:45.800Z,102336.75
2024-01-11T16:46:23.504Z,102318.78
2024-01-11T16:48:51.491Z,102324.31
2024-01-11T16:51:18.385Z,102311.84
2024-01-11T16:53:45.394Z,102315.78
2024-01-11T16:56:12.375Z,102313.56
2024-01-11T16:58:39.868Z,102327.13
2024-01-11T17:01:06.691Z,102308.41
2024-01-11T17:03:33.670Z,102328.22
2024-01-11T17:06:00.580Z,102333.84
2024-01-11T17:08:27.230Z,102319.88
2024-01-11T17:10:53.825Z,102341.16
2024-01-11T17:13:20.667Z,102336.00
2024-01-11T17:15:47.537Z,102338.69
2024-01-11T17:18:14.969Z,102330.13
2024-01-11T17:20:43.370Z,102321.34
2024-01-11T17:23:10.278Z,102329.88
2024-01-11T17:25:37.091Z,102333.56
2024-01-11T17:28:06.886Z,102337.09
2024-01-11T17:30:33.524Z,102324.47
2024-01-11T17:33:00.391Z,102332.06
2024-01-11T17:35:27.142Z,102346.66
2024-01-11T17:37:53.822Z,102328.03
2024-01-11T17:40:20.483Z,102334.03
2024-01-11T17:42:47.532Z,102344.28
2024-01-11T17:45:14.398Z,102314.88
2024-01-11T17:47:43.344Z,102346.22
2024-01-11T17:50:10.346Z,102333.41
2024-01-11T17:52:37.828Z,102340.66
2024-01-11T17:55:06.009Z,102334.81
2024-01-11T17:57:32.597Z,102362.97
2024-01-11T18:00:00.780Z,102349.91
2024-01-11T18:02:27.769Z,102352.06
2024-01-11T18:04:54.473Z,102340.06
2024-01-11T18:07:23.761Z,102335.16
2024-01-11T18:09:53.704Z,102376.88
2024-01-11T18:12:23.456Z,102360.28
2024-01-11T18:14:52.965Z,102368.00
2024-01-11T18:17:19.739Z,102339.53
2024-01-11T18:19:46.444Z,102336.00
2024-01-11T18:22:13.098Z,102359.53
2024-01-11T18:24:43.034Z,102350.22
2024-01-11T18:27:11.329Z,102352.81
2024-01-11T18:29:38.090Z,102335.16
2024-01-11T18:32:05.647Z,102331.53
2024-01-11T18:34:35.715Z,102353.88
2024-01-11T18:37:03.786Z,102329.81
2024-01-11T18:39:30.477Z,102327.78
2024-01-11T18:41:58.990Z,102339.75
2024-01-11T18:44:27.069Z,102306.28
2024-01-11T18:49:35.249Z,102322.09
2024-01-11T18:52:01.934Z,102323.63
2024-01-11T18:54:28.561Z,102310.13
2024-01-11T18:56:55.569Z,102309.28
2024-01-11T18:59:23.684Z,102322.34
2024-01-11T19:01:58.296Z,102304.88
2024-01-11T19:07:06.541Z,102319.75
2024-01-11T19:09:34.759Z,102333.69
2024-01-11T19:12:02.157Z,102341.16
2024-01-11T19:14:29.690Z,102366.28
2024-01-11T19:16:56.715Z,102315.25
2024-01-11T19:19:23.801Z,102381.63
2024-01-11T19:21:50.851Z,102357.63
2024-01-11T19:24:17.647Z,102353.25
2024-01-11T19:26:56.663Z,102373.03
2024-01-11T19:29:25.141Z,102353.66
2024-01-11T19:31:51.862Z,102356.75
2024-01-11T19:34:18.514Z,102340.41
2024-01-11T19:36:52.842Z,102357.94
2024-01-11T19:39:21.114Z,102361.47
2024-01-11T19:41:48.062Z,102362.22
2024-01-11T19:44:15.078Z,102367.03
2024-01-11T19:49:26.177Z,102356.22
2024-01-11T19:51:53.124Z,102344.34
2024-01-11T19:54:23.470Z,102338.34
2024-01-11T19:56:53.118Z,102358.25
2024-01-11T19:59:22.529Z,102356.97
2024-01-11T20:01:50.863Z,102343.28
2024-01-11T20:04:19.368Z,102352.56
2024-01-11T20:06:48.810Z,102334.69
2024-01-11T20:09:19.319Z,102326.97
2024-01-11T20:11:47.646Z,102324.41
2024-01-11T20:14:16.571Z,102306.44
2024-01-11T20:16:44.181Z,102328.47
2024-01-11T20:19:12.464Z,102329.41
2024-01-11T20:21:39.322Z,102324.41
2024-01-11T20:24:06.877Z,102325.06
2024-01-11T20:26:38.975Z,102319.38
2024-01-11T20:29:06.116Z,102325.16
2024-01-11T20:31:32.876Z,102338.19
2024-01-11T20:34:03.616Z,102348.06
2024-01-11T20:36:31.620Z,102346.34
2024-01-11T20:38:58.365Z,102353.75
2024-01-11T20:44:06.147Z,102327.63
2024-01-11T20:46:33.264Z,102330.66
2024-01-11T20:49:01.053Z,102349.69
2024-01-11T20:51:27.861Z,102342.44
2024-01-11T20:53:57.761Z,102335.56
2024-01-11T20:56:24.921Z,102338.69
2024-01-11T20:58:51.976Z,102336.66
2024-01-11T21:01:18.809Z,102349.59
2024-01-11T21:03:45.564Z,102351.84
2024-01-11T21:06:14.457Z,102360.75
2024-01-11T21:08:41.393Z,102346.06
2024-01-11T21:11:09.216Z,102335.38
2024-01-11T21:13:36.423Z,102354.00
2024-01-11T21:16:04.247Z,102312.50
2024-01-11T21:18:31.302Z,102339.56
2024-01-11T21:21:00.503Z,102313.56
2024-01-11T21:23:27.276Z,102335.59
2024-01-11T21:25:53.960Z,102308.63
2024-01-11T21:28:20.683Z,102328.28
2024-01-11T21:30:47.640Z,102345.81
2024-01-11T21:33:16.438Z,102381.78
2024-01-11T21:35:44.509Z,102346.03
2024-01-11T21:38:11.596Z,102351.56
2024-01-11T21:40:40.974Z,102362.91
2024-01-11T21:43:08.820Z,102338.50
2024-01-11T21:45:35.580Z,102344.69
2024-01-11T21:48:02.277Z,102376.34
2024-01-11T21:50:31.948Z,102377.09
2024-01-11T21:53:06.668Z,102364.81
2024-01-11T21:55:34.271Z,102378.03
2024-01-11T21:58:00.884Z,102352.13
2024-01-11T22:00:27.508Z,102367.09
2024-01-11T22:02:54.252Z,102374.66
2024-01-11T22:05:20.948Z,102368.22
2024-01-11T22:07:47.706Z,102355.16
2024-01-11T22:10:15.701Z,102353.22
2024-01-11T22:12:42.338Z,102357.63
2024-01-11T22:15:10.211Z,102358.59
2024-01-11T22:17:37.042Z,102359.09
2024-01-11T22:20:07.418Z,102358.59
2024-01-11T22:22:34.434Z,102354.19
2024-01-11T22:25:01.061Z,102348.63
2024-01-11T22:27:28.861Z,102350.09
2024-01-11T22:29:56.454Z,102367.69
2024-01-11T22:32:23.304Z,102353.75
2024-01-11T22:34:50.176Z,102324.47
2024-01-11T22:37:16.971Z,102341.94
2024-01-11T22:39:45.571Z,102357.97
2024-01-11T22:42:12.470Z,102326.72
2024-01-11T22:44:39.254Z,102359.56
2024-01-11T22:47:06.483Z,102329.28
2024-01-11T22:49:33.554Z,102338.69
2024-01-11T22:52:04.342Z,102320.91
2024-01-11T22:54:31.256Z,102331.41
2024-01-11T22:56:58.274Z,102352.63
2024-01-11T22:59:28.147Z,102330.53
2024-01-11T23:02:00.006Z,102348.28
2024-01-11T23:04:26.806Z,102349.50
2024-01-11T23:06:53.552Z,102330.69
2024-01-11T23:09:21.073Z,102353.88
2024-01-11T23:11:50.030Z,102377.84
2024-01-11T23:14:20.004Z,102312.41
2024-01-11T23:16:46.932Z,102333.41
2024-01-11T23:19:14.685Z,102326.34
2024-01-11T23:21:43.263Z,102325.59
2024-01-11T23:24:09.974Z,102340.28
2024-01-11T23:26:37.165Z,102348.13
2024-01-11T23:29:03.964Z,102320.53
2024-01-11T23:31:30.937Z,102303.19
2024-01-11T23:34:00.805Z,102325.16
2024-01-11T23:36:27.876Z,102304.91
2024-01-11T23:38:54.726Z,102296.13
2024-01-11T23:41:21.872Z,102324.53
2024-01-11T23:43:49.806Z,102327.13
2024-01-11T23:46:16.512Z,102322.81
2024-01-11T23:48:43.293Z,102322.25
2024-01-11T23:51:10.368Z,102335.41
2024-01-11T23:53:37.076Z,102350.41
2024-01-11T23:56:04.959Z,102334.44
2024-01-11T23:58:31.733Z,102347.84
